Time;durP1;ratioP1;P1;durP2;ratioP2;P2;SDS_P1;SDS_P2;PMS_P1;PMS_P2;Temp;Humidity;BMP_temperature;BMP_pressure;BME280_temperature;BME280_humidity;BME280_pressure;Samples;Min_cycle;Max_cycle;Signal;HPM_P1;HPM_P2
2022/08/04 00:00:46;;;;;;;3.08;1.42;;;24.40;68.20;;;;;;5053362;28;20535;-67
2022/08/04 00:03:25;;;;;;;3.63;1.67;;;24.40;68.30;;;;;;5069951;28;20049;-67
2022/08/04 00:06:03;;;;;;;3.15;1.13;;;24.40;68.20;;;;;;5053537;28;20503;-65
2022/08/04 00:08:31;;;;;;;;;;;24.40;68.20;;;;;;5053370;28;20048;-64
2022/08/04 00:10:58;;;;;;;5.50;1.65;;;24.30;68.40;;;;;;5069884;28;20018;-64
2022/08/04 00:13:25;;;;;;;4.80;1.83;;;24.30;68.20;;;;;;5053412;28;20041;-64
2022/08/04 00:15:58;;;;;;;4.20;1.80;;;24.30;68.30;;;;;;5053555;28;20394;-64
2022/08/04 00:18:32;;;;;;;4.03;1.33;;;24.30;68.30;;;;;;5054795;28;20056;-64
2022/08/04 00:20:59;;;;;;;4.78;2.10;;;24.40;68.30;;;;;;5069168;28;20382;-64
2022/08/04 00:23:25;;;;;;;3.78;1.60;;;24.30;68.30;;;;;;5053910;28;20397;-64
2022/08/04 00:25:51;;;;;;;2.88;1.83;;;24.30;68.30;;;;;;5069759;28;20049;-67
2022/08/04 00:28:17;;;;;;;2.78;1.30;;;24.30;68.20;;;;;;5036380;28;20436;-64
2022/08/04 00:30:42;;;;;;;3.38;1.60;;;24.30;68.30;;;;;;5053268;28;20492;-64
2022/08/04 00:33:08;;;;;;;5.60;1.45;;;24.30;68.20;;;;;;5069658;28;20056;-64
2022/08/04 00:35:33;;;;;;;3.22;1.40;;;24.40;68.30;;;;;;5054420;28;20511;-64
2022/08/04 00:37:59;;;;;;;2.97;1.45;;;24.30;68.30;;;;;;5052155;28;20052;-64
2022/08/04 00:40:32;;;;;;;4.55;1.63;;;24.30;68.30;;;;;;5053299;28;20045;-64
2022/08/04 00:43:29;;;;;;;2.95;1.50;;;24.30;68.20;;;;;;5070196;28;20044;-64
2022/08/04 00:45:58;;;;;;;2.97;1.52;;;24.40;68.20;;;;;;5073351;28;20056;-65
2022/08/04 00:48:41;;;;;;;4.00;1.52;;;24.30;68.30;;;;;;5074234;28;20093;-64
2022/08/04 00:51:28;;;;;;;2.60;1.48;;;24.30;68.20;;;;;;5055397;28;20059;-64
2022/08/04 00:54:35;;;;;;;2.92;1.40;;;24.30;68.20;;;;;;5058674;28;20094;-64
2022/08/04 00:57:27;;;;;;;2.92;1.60;;;24.30;68.20;;;;;;5070645;28;20138;-64
2022/08/04 01:00:05;;;;;;;2.95;1.25;;;24.30;68.30;;;;;;5072123;28;20048;-64
2022/08/04 01:02:46;;;;;;;2.88;1.40;;;24.30;68.90;;;;;;5072471;28;20064;-64
2022/08/04 01:05:38;;;;;;;4.03;1.45;;;24.30;68.30;;;;;;5055217;28;20055;-64
2022/08/04 01:08:29;;;;;;;3.90;1.30;;;24.30;68.30;;;;;;5058426;28;20131;-64
2022/08/04 01:11:06;;;;;;;2.47;1.70;;;24.30;68.30;;;;;;5073426;28;20139;-64
2022/08/04 01:13:54;;;;;;;2.30;1.35;;;24.30;68.30;;;;;;5071919;28;20040;-64
2022/08/04 01:16:23;;;;;;;3.60;1.45;;;24.30;68.20;;;;;;5072469;28;20059;-64
2022/08/04 01:19:04;;;;;;;3.15;1.40;;;24.30;68.30;;;;;;5054339;28;20576;-64
2022/08/04 01:21:29;;;;;;;2.45;1.40;;;24.30;68.30;;;;;;5073220;28;20089;-64
2022/08/04 01:24:23;;;;;;;3.28;1.55;;;24.30;68.30;;;;;;5073090;28;20040;-64
2022/08/04 01:27:10;;;;;;;1.88;1.33;;;24.30;68.20;;;;;;5072547;28;20041;-64
2022/08/04 01:29:50;;;;;;;3.60;1.85;;;24.30;68.20;;;;;;5071563;28;20052;-64
2022/08/04 01:32:20;;;;;;;3.03;1.25;;;24.30;68.20;;;;;;5055291;28;20048;-64
2022/08/04 01:35:01;;;;;;;2.75;1.40;;;24.30;68.30;;;;;;5071512;28;20041;-64
2022/08/04 01:37:37;;;;;;;5.68;2.40;;;24.30;68.20;;;;;;5055934;28;20056;-64
2022/08/04 01:40:04;;;;;;;2.58;1.45;;;24.30;68.20;;;;;;5071261;28;20200;-64
2022/08/04 01:42:32;;;;;;;2.47;1.50;;;24.30;68.30;;;;;;5073086;28;20051;-64
2022/08/04 01:45:02;;;;;;;3.05;1.38;;;24.30;68.20;;;;;;5070641;28;20052;-64
2022/08/04 01:47:28;;;;;;;3.75;1.50;;;24.30;68.30;;;;;;5071341;28;20174;-64
2022/08/04 01:49:54;;;;;;;2.67;1.50;;;24.30;68.20;;;;;;5072552;28;20048;-64
2022/08/04 01:52:19;;;;;;;2.75;1.52;;;24.30;68.20;;;;;;5071644;28;20373;-65
2022/08/04 01:54:45;;;;;;;2.67;1.33;;;24.30;68.20;;;;;;5070491;28;20130;-64
2022/08/04 01:57:11;;;;;;;3.70;1.85;;;24.30;68.20;;;;;;5054849;28;20115;-64
2022/08/04 01:59:37;;;;;;;3.35;1.58;;;24.30;68.20;;;;;;5071428;28;20124;-64
2022/08/04 02:02:06;;;;;;;3.00;1.50;;;24.30;68.20;;;;;;5055897;28;20053;-64
2022/08/04 02:04:31;;;;;;;3.67;1.58;;;24.30;68.20;;;;;;5050753;28;20488;-64
2022/08/04 02:07:18;;;;;;;3.45;1.50;;;24.20;68.20;;;;;;5052106;28;20060;-64
2022/08/04 02:10:10;;;;;;;3.10;1.55;;;24.30;68.20;;;;;;5050523;28;20049;-64
2022/08/04 02:12:52;;;;;;;2.45;1.40;;;24.20;68.10;;;;;;5027019;28;20444;-64
2022/08/04 02:15:51;;;;;;;3.38;1.77;;;24.20;68.10;;;;;;5034604;28;20045;-64
2022/08/04 02:18:26;;;;;;;2.63;1.40;;;24.20;68.10;;;;;;5051586;28;20378;-64
2022/08/04 02:21:11;;;;;;;2.47;1.42;;;24.20;68.80;;;;;;5050887;28;20431;-64
2022/08/04 02:23:39;;;;;;;3.55;1.27;;;24.20;68.10;;;;;;5050633;28;20044;-64
2022/08/04 02:26:12;;;;;;;2.30;1.48;;;24.20;68.20;;;;;;5052282;28;20052;-64
2022/08/04 02:28:57;;;;;;;3.03;1.40;;;24.20;68.20;;;;;;5051588;28;20053;-65
2022/08/04 02:31:46;;;;;;;3.95;1.50;;;24.20;68.10;;;;;;5051347;28;20063;-64
2022/08/04 02:34:27;;;;;;;3.42;1.70;;;24.20;68.20;;;;;;5051517;28;20134;-64
2022/08/04 02:36:52;;;;;;;2.58;1.50;;;24.20;68.10;;;;;;5050211;28;20036;-64
2022/08/04 02:39:19;;;;;;;4.80;1.67;;;24.20;68.10;;;;;;5034467;28;20037;-64
2022/08/04 02:41:46;;;;;;;3.15;1.50;;;24.20;68.10;;;;;;5050560;28;20134;-64
2022/08/04 02:44:11;;;;;;;3.60;1.50;;;24.20;68.80;;;;;;5051436;28;20044;-64
2022/08/04 02:46:39;;;;;;;4.13;1.40;;;24.20;68.50;;;;;;5051154;28;20053;-64
2022/08/04 02:49:08;;;;;;;3.13;1.50;;;24.20;68.10;;;;;;5050796;28;20090;-64
2022/08/04 02:51:40;;;;;;;3.67;1.65;;;24.20;68.10;;;;;;5050228;28;20055;-64
2022/08/04 02:54:06;;;;;;;3.72;1.63;;;24.20;68.10;;;;;;5052208;28;20481;-64
2022/08/04 02:56:33;;;;;;;1.98;1.27;;;24.20;68.10;;;;;;5052715;28;20116;-64
2022/08/04 02:59:00;;;;;;;3.35;1.38;;;24.20;68.00;;;;;;5055182;28;20044;-64
2022/08/04 03:01:26;;;;;;;3.17;2.00;;;24.20;68.10;;;;;;5056104;28;20079;-64
2022/08/04 03:04:11;;;;;;;3.22;1.58;;;24.20;68.10;;;;;;5055097;28;20750;-64
2022/08/04 03:06:52;;;;;;;5.90;1.80;;;24.20;68.00;;;;;;5054871;28;20289;-64
2022/08/04 03:10:00;;;;;;;4.32;2.00;;;24.20;68.00;;;;;;5071378;28;20052;-64
2022/08/04 03:12:45;;;;;;;3.20;1.30;;;24.20;68.00;;;;;;5054105;28;20098;-65
2022/08/04 03:15:36;;;;;;;3.10;1.58;;;24.20;68.00;;;;;;5054739;28;20041;-64
2022/08/04 03:18:39;;;;;;;2.55;1.50;;;24.20;68.00;;;;;;5054952;28;20053;-64
2022/08/04 03:22:08;;;;;;;4.75;1.65;;;24.20;68.00;;;;;;5055721;28;20048;-64
2022/08/04 03:25:08;;;;;;;3.40;1.90;;;24.10;68.00;;;;;;4965446;28;20054;-64
2022/08/04 03:27:41;;;;;;;4.85;1.60;;;24.10;68.00;;;;;;5056029;28;20069;-64
2022/08/04 03:30:22;;;;;;;4.00;1.65;;;24.10;68.00;;;;;;5037759;28;20530;-64
2022/08/04 03:33:12;;;;;;;3.00;1.52;;;24.10;68.00;;;;;;5053426;28;20135;-64
2022/08/04 03:35:53;;;;;;;2.47;1.30;;;24.10;68.00;;;;;;5055463;28;20053;-64
2022/08/04 03:38:45;;;;;;;3.67;1.42;;;24.20;68.00;;;;;;5054653;28;20084;-64
2022/08/04 03:41:35;;;;;;;3.83;1.65;;;24.10;68.00;;;;;;5053403;28;20087;-64
2022/08/04 03:44:24;;;;;;;2.97;1.30;;;24.10;68.00;;;;;;5053957;28;20037;-64
2022/08/04 03:46:59;;;;;;;3.83;1.65;;;24.10;68.00;;;;;;5053112;28;20049;-64
2022/08/04 03:49:38;;;;;;;2.65;1.60;;;24.10;68.00;;;;;;5054227;28;20071;-66
2022/08/04 03:55:41;;;;;;;4.00;1.73;;;24.10;68.00;;;;;;5054315;28;20041;-65
2022/08/04 03:58:12;;;;;;;3.35;1.65;;;24.10;68.00;;;;;;5054752;28;20447;-65
2022/08/04 04:01:13;;;;;;;2.92;1.27;;;24.10;68.00;;;;;;5035831;28;20045;-65
2022/08/04 04:04:04;;;;;;;3.88;1.80;;;24.10;68.00;;;;;;5071221;28;20045;-65
2022/08/04 04:06:53;;;;;;;3.90;1.70;;;24.10;68.00;;;;;;5053332;28;20128;-66
2022/08/04 04:09:37;;;;;;;4.13;1.70;;;24.10;67.90;;;;;;5052177;28;20045;-66
2022/08/04 04:12:06;;;;;;;3.25;1.52;;;24.10;68.00;;;;;;5054832;28;20079;-66
2022/08/04 04:14:41;;;;;;;5.78;1.50;;;24.10;68.00;;;;;;5053674;28;20067;-66
2022/08/04 04:17:16;;;;;;;3.45;1.50;;;24.10;68.00;;;;;;5053641;28;20080;-66
2022/08/04 04:19:50;;;;;;;2.80;1.40;;;24.10;68.00;;;;;;5036800;28;20075;-66
2022/08/04 04:22:43;;;;;;;2.70;1.40;;;24.10;68.00;;;;;;5052713;28;20045;-66
2022/08/04 04:25:33;;;;;;;4.78;1.65;;;24.10;68.00;;;;;;5054702;28;20057;-65
2022/08/04 04:28:14;;;;;;;2.58;1.40;;;24.10;68.00;;;;;;5039642;28;20065;-66
2022/08/04 04:30:50;;;;;;;2.90;1.50;;;24.10;68.00;;;;;;5054077;28;20068;-66
2022/08/04 04:33:42;;;;;;;3.55;1.48;;;24.10;68.00;;;;;;5053114;28;20045;-66
2022/08/04 04:36:34;;;;;;;3.10;1.60;;;24.10;67.90;;;;;;5053691;28;20053;-65
2022/08/04 04:39:20;;;;;;;4.55;1.38;;;24.10;67.90;;;;;;5018650;28;20448;-65
2022/08/04 04:42:30;;;;;;;5.28;1.40;;;24.10;68.00;;;;;;5052803;28;20334;-67
2022/08/04 04:45:22;;;;;;;2.08;1.30;;;24.10;67.90;;;;;;5049804;28;20075;-66
2022/08/04 04:48:09;;;;;;;3.63;1.50;;;24.10;68.00;;;;;;5052821;28;20049;-66
2022/08/04 04:50:56;;;;;;;2.70;1.55;;;24.10;68.00;;;;;;5052335;28;20095;-66
2022/08/04 04:53:52;;;;;;;2.53;1.20;;;24.00;67.90;;;;;;5054083;28;20049;-66
2022/08/04 04:56:28;;;;;;;2.97;1.52;;;24.10;68.00;;;;;;5036534;28;20107;-66
2022/08/04 04:58:54;;;;;;;2.72;1.27;;;24.10;68.00;;;;;;5052603;28;20051;-66
2022/08/04 05:01:57;;;;;;;2.58;1.38;;;24.10;68.00;;;;;;5052947;28;20045;-66
2022/08/04 05:04:54;;;;;;;3.47;1.70;;;24.10;68.00;;;;;;5053006;28;20404;-65
2022/08/04 05:07:51;;;;;;;5.78;1.80;;;24.10;68.00;;;;;;5052990;28;20049;-66
2022/08/04 05:10:35;;;;;;;4.20;1.80;;;24.10;68.00;;;;;;5055500;28;20049;-66
2022/08/04 05:13:26;;;;;;;4.93;1.92;;;24.10;68.00;;;;;;5053192;28;20508;-66
2022/08/04 05:15:53;;;;;;;3.47;1.50;;;24.10;68.00;;;;;;5054523;28;20047;-66
2022/08/04 05:18:23;;;;;;;4.03;1.65;;;24.10;68.00;;;;;;5035145;28;20068;-66
2022/08/04 05:20:52;;;;;;;3.83;1.60;;;24.10;68.00;;;;;;5052284;28;20154;-66
2022/08/04 05:23:20;;;;;;;3.67;1.48;;;24.10;68.00;;;;;;5052517;28;20515;-65
2022/08/04 05:25:57;;;;;;;3.72;1.50;;;24.10;68.00;;;;;;5034860;28;20041;-66
2022/08/04 05:28:52;;;;;;;6.53;1.75;;;24.10;68.60;;;;;;5052307;28;20147;-65
2022/08/04 05:31:22;;;;;;;2.08;1.10;;;24.10;68.00;;;;;;5031804;28;20086;-65
2022/08/04 05:33:59;;;;;;;4.55;1.83;;;24.10;68.00;;;;;;5050884;28;20103;-64
2022/08/04 05:36:35;;;;;;;3.28;1.80;;;24.20;68.00;;;;;;5035887;28;20047;-63
2022/08/04 05:39:02;;;;;;;13.70;2.90;;;24.20;68.00;;;;;;5052243;28;20041;-62
2022/08/04 05:41:27;;;;;;;13.27;3.20;;;24.10;67.90;;;;;;5035696;28;20460;-62
2022/08/04 05:43:53;;;;;;;10.20;2.90;;;24.10;67.80;;;;;;5052881;28;20045;-62
2022/08/04 05:46:19;;;;;;;11.43;3.13;;;24.00;67.80;;;;;;5034425;28;20055;-62
2022/08/04 05:48:44;;;;;;;9.90;3.03;;;24.00;67.90;;;;;;5034863;28;20087;-64
2022/08/04 05:51:10;;;;;;;9.70;3.38;;;24.00;68.00;;;;;;5051951;28;20084;-63
2022/08/04 05:53:36;;;;;;;12.32;3.55;;;23.90;68.20;;;;;;5034216;28;20083;-63
2022/08/04 05:56:01;;;;;;;11.68;3.28;;;23.90;68.30;;;;;;5034780;28;20044;-63
2022/08/04 05:58:30;;;;;;;9.95;3.03;;;23.90;68.60;;;;;;5051817;28;20033;-63
2022/08/04 06:00:59;;;;;;;8.18;3.22;;;23.80;68.70;;;;;;5050701;28;20091;-63
2022/08/04 06:03:25;;;;;;;14.10;3.08;;;23.80;69.00;;;;;;5035459;28;20480;-63
2022/08/04 06:05:50;;;;;;;9.98;2.92;;;23.80;69.10;;;;;;5052482;28;20041;-63
2022/08/04 06:08:16;;;;;;;10.73;2.95;;;23.80;69.90;;;;;;5050797;28;20041;-63
2022/08/04 06:10:41;;;;;;;14.25;3.17;;;23.80;69.60;;;;;;5034825;28;20053;-63
2022/08/04 06:13:09;;;;;;;8.57;2.70;;;23.80;69.60;;;;;;5051055;28;20091;-63
2022/08/04 06:15:38;;;;;;;11.18;3.15;;;23.80;69.60;;;;;;5044670;28;20127;-63
2022/08/04 06:18:04;;;;;;;8.95;2.85;;;23.80;70.20;;;;;;5053780;28;20480;-63
2022/08/04 06:20:31;;;;;;;14.35;3.83;;;23.80;69.50;;;;;;5070877;28;20077;-63
2022/08/04 06:23:02;;;;;;;11.52;2.97;;;23.80;69.40;;;;;;5071229;28;20037;-64
2022/08/04 06:25:31;;;;;;;13.15;3.28;;;23.90;69.30;;;;;;5054468;28;20041;-62
2022/08/04 06:27:57;;;;;;;10.70;3.30;;;23.90;69.30;;;;;;5071545;28;20044;-63
2022/08/04 06:30:25;;;;;;;11.60;2.83;;;23.90;69.20;;;;;;5071950;28;20098;-63
2022/08/04 06:32:55;;;;;;;10.25;3.20;;;23.80;69.60;;;;;;5054523;28;20044;-63
2022/08/04 06:35:20;;;;;;;10.48;3.15;;;23.80;69.60;;;;;;5070534;28;20050;-63
2022/08/04 06:37:46;;;;;;;15.23;3.70;;;23.80;68.90;;;;;;5054048;28;20112;-63
2022/08/04 06:40:13;;;;;;;12.20;3.20;;;23.80;68.80;;;;;;5070839;28;20044;-63
2022/08/04 06:42:39;;;;;;;13.77;3.47;;;23.90;68.80;;;;;;5053331;28;20056;-63
2022/08/04 06:45:05;;;;;;;12.50;3.13;;;23.80;68.70;;;;;;5053838;28;20040;-63
2022/08/04 06:47:31;;;;;;;11.90;3.67;;;23.80;68.80;;;;;;5071000;28;20064;-63
2022/08/04 06:49:56;;;;;;;11.32;3.17;;;23.90;68.70;;;;;;5053129;28;20404;-63
2022/08/04 06:52:22;;;;;;;8.80;2.78;;;23.80;68.50;;;;;;5054268;28;20046;-64
2022/08/04 06:54:49;;;;;;;12.32;2.92;;;23.80;68.40;;;;;;5071222;28;20048;-63
2022/08/04 06:57:20;;;;;;;10.73;3.22;;;23.80;68.50;;;;;;5069533;28;20029;-65
2022/08/04 06:59:48;;;;;;;11.70;3.15;;;23.90;68.60;;;;;;5053540;28;20044;-65
2022/08/04 07:02:15;;;;;;;13.82;3.00;;;23.90;68.50;;;;;;5054290;28;20040;-64
2022/08/04 07:04:42;;;;;;;10.15;2.90;;;23.90;68.50;;;;;;5069816;28;20056;-64
2022/08/04 07:07:07;;;;;;;9.32;2.95;;;23.90;68.30;;;;;;5067398;28;20047;-65
2022/08/04 07:09:33;;;;;;;11.23;2.75;;;24.00;68.30;;;;;;5037002;28;20040;-63
2022/08/04 07:11:58;;;;;;;8.60;2.83;;;24.00;68.20;;;;;;5069852;28;20056;-64
2022/08/04 07:14:25;;;;;;;10.07;3.30;;;24.00;68.10;;;;;;5053955;28;20094;-64
2022/08/04 07:16:51;;;;;;;8.50;2.85;;;24.00;68.00;;;;;;5037832;28;20067;-64
2022/08/04 07:19:16;;;;;;;9.45;3.25;;;24.00;67.80;;;;;;5036930;28;20504;-64
2022/08/04 07:21:42;;;;;;;10.10;3.42;;;24.00;67.70;;;;;;5070989;28;20044;-64
2022/08/04 07:24:08;;;;;;;12.63;3.85;;;24.00;67.60;;;;;;5070055;28;20052;-64
2022/08/04 07:26:33;;;;;;;12.50;3.97;;;24.00;67.70;;;;;;5070709;28;20113;-64
2022/08/04 07:28:59;;;;;;;13.20;3.55;;;24.00;67.60;;;;;;5036848;28;20045;-64
2022/08/04 07:31:24;;;;;;;11.15;3.80;;;24.00;67.60;;;;;;5053661;28;20056;-64
2022/08/04 07:33:50;;;;;;;7.32;3.47;;;24.00;67.60;;;;;;5037004;28;20119;-64
2022/08/04 07:36:15;;;;;;;9.95;3.95;;;24.00;67.50;;;;;;5053910;28;20128;-63
2022/08/04 07:38:41;;;;;;;10.45;4.03;;;24.00;67.40;;;;;;5069608;28;20127;-63
2022/08/04 07:41:07;;;;;;;13.48;3.65;;;24.00;67.40;;;;;;5071711;28;20044;-64
2022/08/04 07:43:34;;;;;;;10.30;3.38;;;24.00;67.40;;;;;;5072268;28;20036;-66
2022/08/04 07:46:00;;;;;;;9.98;3.10;;;24.00;67.40;;;;;;5072940;28;20484;-66
2022/08/04 07:48:25;;;;;;;11.82;3.20;;;24.00;67.40;;;;;;5057721;28;20056;-66
2022/08/04 07:50:51;;;;;;;9.30;3.38;;;24.10;67.50;;;;;;5073799;28;20051;-66
2022/08/04 07:53:17;;;;;;;9.90;2.72;;;24.10;67.50;;;;;;5039928;28;20032;-66
2022/08/04 07:55:44;;;;;;;9.68;2.70;;;24.10;67.40;;;;;;5074868;28;20148;-66
2022/08/04 07:58:09;;;;;;;7.90;2.85;;;24.10;67.50;;;;;;5040917;28;20102;-66
2022/08/04 08:00:35;;;;;;;5.60;2.30;;;24.10;67.50;;;;;;5055663;28;20556;-66
2022/08/04 08:03:00;;;;;;;9.63;2.63;;;24.10;67.50;;;;;;5073806;28;20052;-66
2022/08/04 08:05:27;;;;;;;7.72;2.63;;;24.20;67.50;;;;;;5040444;28;20037;-66
2022/08/04 08:07:53;;;;;;;7.68;2.40;;;24.20;67.50;;;;;;5071250;28;20070;-66
2022/08/04 08:10:19;;;;;;;7.25;2.78;;;24.20;67.60;;;;;;5074732;28;20047;-66
2022/08/04 08:12:45;;;;;;;5.93;2.60;;;24.20;67.60;;;;;;5061747;28;20060;-66
2022/08/04 08:15:13;;;;;;;7.88;2.58;;;24.30;67.60;;;;;;5055520;28;20043;-66
2022/08/04 08:17:39;;;;;;;6.68;2.40;;;24.30;67.70;;;;;;5074488;28;20127;-65
2022/08/04 08:20:08;;;;;;;8.93;2.28;;;24.30;67.70;;;;;;5064492;28;20103;-66
2022/08/04 08:22:35;;;;;;;7.68;2.50;;;24.30;67.70;;;;;;5038820;28;20098;-65
2022/08/04 08:25:01;;;;;;;8.63;2.50;;;24.30;67.70;;;;;;5056006;28;20046;-64
2022/08/04 08:27:27;;;;;;;7.80;2.80;;;24.30;67.70;;;;;;5072371;28;20040;-66
2022/08/04 08:29:52;;;;;;;6.50;2.13;;;24.30;67.80;;;;;;5054928;28;20056;-66
2022/08/04 08:32:18;;;;;;;5.32;2.95;;;24.30;67.70;;;;;;5056577;28;20487;-66
2022/08/04 08:34:44;;;;;;;7.38;2.88;;;24.30;67.70;;;;;;5055381;28;20099;-67
2022/08/04 08:37:18;;;;;;;5.78;2.35;;;24.30;67.70;;;;;;5074305;28;20511;-66
2022/08/04 08:39:49;;;;;;;7.25;2.40;;;24.30;68.40;;;;;;5056345;28;20051;-66
2022/08/04 08:42:38;;;;;;;8.70;3.10;;;24.30;67.70;;;;;;5055738;28;20385;-66
2022/08/04 08:45:12;;;;;;;4.80;2.60;;;24.30;67.70;;;;;;5074246;28;20464;-67
2022/08/04 08:48:06;;;;;;;8.13;2.33;;;24.40;67.80;;;;;;5072948;28;20585;-67
2022/08/04 08:50:49;;;;;;;6.65;2.92;;;24.40;67.80;;;;;;5072285;28;20055;-66
2022/08/04 08:53:43;;;;;;;5.00;2.28;;;24.40;67.70;;;;;;5074433;28;20130;-67
2022/08/04 08:56:19;;;;;;;7.80;2.55;;;24.40;67.80;;;;;;5072223;28;20052;-67
2022/08/04 08:59:07;;;;;;;8.63;2.42;;;24.50;67.80;;;;;;5072565;28;20051;-67
2022/08/04 09:01:49;;;;;;;9.18;2.50;;;24.50;67.80;;;;;;5072945;28;20048;-67
2022/08/04 09:04:40;;;;;;;4.80;2.08;;;24.50;67.80;;;;;;5055635;28;20102;-67
2022/08/04 09:07:29;;;;;;;7.40;2.20;;;24.50;67.80;;;;;;5080281;28;20044;-66
2022/08/04 09:10:18;;;;;;;4.95;2.47;;;24.50;67.70;;;;;;5083364;28;20056;-66
2022/08/04 09:12:50;;;;;;;7.07;2.25;;;24.50;67.70;;;;;;5075477;28;20044;-67
2022/08/04 09:15:20;;;;;;;5.00;2.00;;;24.50;67.70;;;;;;5092740;28;20040;-66
2022/08/04 09:18:01;;;;;;;5.00;2.20;;;24.50;67.70;;;;;;5074794;28;20145;-66
2022/08/04 09:20:36;;;;;;;5.32;2.78;;;24.50;67.70;;;;;;5059725;28;20487;-66
2022/08/04 09:23:27;;;;;;;5.82;2.25;;;24.60;67.70;;;;;;5076446;28;20094;-66
2022/08/04 09:26:07;;;;;;;4.57;2.20;;;24.50;67.60;;;;;;5071109;28;20048;-66
2022/08/04 09:28:53;;;;;;;3.42;1.90;;;24.60;67.60;;;;;;5092270;28;20547;-66
2022/08/04 09:31:47;;;;;;;5.50;2.05;;;24.50;67.60;;;;;;5091840;28;20126;-66
2022/08/04 09:34:38;;;;;;;5.32;1.90;;;24.60;67.60;;;;;;5093708;28;20177;-66
2022/08/04 09:37:19;;;;;;;4.85;2.00;;;24.60;67.60;;;;;;5077195;28;20051;-66
2022/08/04 09:39:58;;;;;;;4.93;1.90;;;24.60;67.60;;;;;;5091590;28;20119;-67
2022/08/04 09:42:32;;;;;;;5.22;1.92;;;24.60;67.60;;;;;;5054916;28;20103;-66
2022/08/04 09:45:06;;;;;;;5.47;2.20;;;24.60;67.60;;;;;;5070995;28;20135;-66
2022/08/04 09:47:52;;;;;;;5.93;2.50;;;24.60;67.60;;;;;;5071989;28;20036;-66
2022/08/04 09:50:37;;;;;;;5.93;2.30;;;24.70;67.60;;;;;;5072063;28;20052;-66
2022/08/04 09:53:22;;;;;;;5.03;2.20;;;24.70;67.60;;;;;;5071776;28;20381;-67
2022/08/04 09:55:55;;;;;;;4.90;2.00;;;24.60;67.50;;;;;;5071359;28;20098;-67
2022/08/04 09:58:45;;;;;;;4.05;2.05;;;24.60;67.50;;;;;;5071888;28;20115;-65
2022/08/04 10:01:16;;;;;;;4.43;1.90;;;24.70;67.50;;;;;;5057359;28;20040;-66
2022/08/04 10:03:44;;;;;;;8.43;2.38;;;24.70;67.50;;;;;;5054906;28;20076;-66
2022/08/04 10:06:34;;;;;;;4.60;2.28;;;24.70;67.40;;;;;;5070144;28;20110;-67
2022/08/04 10:09:19;;;;;;;5.78;2.08;;;24.70;67.40;;;;;;5068770;28;20476;-65
2022/08/04 10:11:56;;;;;;;4.75;2.03;;;24.70;67.30;;;;;;5072383;28;20040;-67
2022/08/04 10:14:36;;;;;;;5.50;2.33;;;24.70;67.40;;;;;;5079960;28;20047;-67
2022/08/04 10:17:15;;;;;;;4.75;2.05;;;24.80;68.00;;;;;;5071129;28;20123;-67
2022/08/04 10:19:40;;;;;;;6.20;1.90;;;24.80;68.40;;;;;;5055540;28;20131;-66
2022/08/04 10:22:14;;;;;;;5.85;2.05;;;24.80;68.40;;;;;;5052847;28;20131;-66
2022/08/04 10:24:52;;;;;;;5.35;2.05;;;24.80;68.60;;;;;;5069532;28;20090;-67
2022/08/04 10:27:37;;;;;;;8.18;2.38;;;24.80;68.50;;;;;;5069426;28;20049;-67
2022/08/04 10:30:13;;;;;;;3.97;2.10;;;24.80;68.40;;;;;;5070360;28;20139;-67
2022/08/04 10:32:51;;;;;;;5.75;2.42;;;24.80;68.50;;;;;;5054601;28;20048;-67
2022/08/04 10:35:18;;;;;;;4.93;2.22;;;24.90;68.40;;;;;;5067640;28;20090;-67
2022/08/04 10:37:47;;;;;;;8.52;2.40;;;24.90;68.30;;;;;;5053542;28;20377;-66
2022/08/04 10:40:44;;;;;;;5.70;2.25;;;24.90;68.30;;;;;;5071962;28;20460;-66
2022/08/04 10:43:31;;;;;;;3.83;1.87;;;24.90;68.30;;;;;;5057241;28;20041;-67
2022/08/04 10:46:05;;;;;;;6.07;2.42;;;24.90;68.20;;;;;;5070772;28;20090;-67
2022/08/04 10:48:50;;;;;;;8.80;3.00;;;24.90;68.20;;;;;;5070495;28;20052;-67
2022/08/04 10:51:36;;;;;;;6.50;2.50;;;25.00;68.30;;;;;;5054373;28;20430;-67
2022/08/04 10:54:04;;;;;;;8.57;3.13;;;25.00;68.30;;;;;;5056730;28;20403;-67
2022/08/04 10:56:33;;;;;;;6.97;2.75;;;25.00;68.20;;;;;;5070415;28;20102;-67
2022/08/04 10:59:05;;;;;;;6.90;2.95;;;25.10;68.30;;;;;;5070791;28;20048;-67
2022/08/04 11:01:40;;;;;;;6.50;2.40;;;25.10;68.30;;;;;;5071247;28;20055;-68
2022/08/04 11:04:14;;;;;;;7.28;2.55;;;25.10;68.30;;;;;;5069905;28;20040;-68
2022/08/04 11:06:40;;;;;;;8.38;2.97;;;25.10;68.30;;;;;;5077224;28;20045;-67
2022/08/04 11:09:05;;;;;;;6.72;2.90;;;25.10;68.30;;;;;;5052496;28;20041;-67
2022/08/04 11:11:38;;;;;;;5.45;2.38;;;25.10;68.40;;;;;;5070650;28;20036;-67
2022/08/04 11:14:12;;;;;;;7.25;2.72;;;25.20;68.50;;;;;;5053225;28;20041;-68
2022/08/04 11:16:43;;;;;;;8.43;2.97;;;25.20;68.50;;;;;;5052049;28;20045;-67
2022/08/04 11:19:35;;;;;;;7.05;2.33;;;25.20;68.40;;;;;;5058007;28;20644;-67
2022/08/04 11:22:30;;;;;;;7.85;2.40;;;25.20;68.50;;;;;;5080662;28;20048;-67
2022/08/04 11:25:05;;;;;;;7.85;2.60;;;25.20;69.00;;;;;;5068244;28;20045;-65
2022/08/04 11:27:45;;;;;;;6.63;2.25;;;25.20;68.50;;;;;;5071341;28;20481;-68
2022/08/04 11:30:12;;;;;;;8.85;2.70;;;25.20;68.40;;;;;;5080404;28;20124;-68
2022/08/04 11:32:59;;;;;;;7.15;2.65;;;25.20;68.30;;;;;;5057443;28;20036;-68
2022/08/04 11:35:31;;;;;;;6.07;2.35;;;25.20;68.40;;;;;;5080619;28;20037;-68
2022/08/04 11:38:21;;;;;;;6.28;2.60;;;25.20;68.40;;;;;;5056210;28;20127;-69
2022/08/04 11:40:48;;;;;;;5.28;2.30;;;25.20;68.50;;;;;;5058320;28;20052;-69
2022/08/04 11:43:35;;;;;;;8.80;2.88;;;25.20;68.50;;;;;;5040179;28;20547;-69
2022/08/04 11:46:06;;;;;;;4.97;2.23;;;25.20;68.60;;;;;;5061991;28;20036;-65
2022/08/04 11:48:36;;;;;;;8.05;2.63;;;25.20;68.60;;;;;;5073111;28;20119;-67
2022/08/04 11:51:04;;;;;;;5.70;2.80;;;25.20;68.60;;;;;;5037708;28;20037;-67
2022/08/04 11:53:30;;;;;;;4.75;2.58;;;25.20;68.70;;;;;;5036595;28;20523;-67
2022/08/04 11:55:58;;;;;;;7.10;2.50;;;25.20;68.80;;;;;;5020655;28;20041;-67
2022/08/04 11:58:24;;;;;;;5.72;2.63;;;25.20;68.80;;;;;;5020218;28;20396;-67
2022/08/04 12:01:11;;;;;;;6.28;2.20;;;25.20;68.80;;;;;;5053401;28;20140;-67
2022/08/04 12:03:58;;;;;;;5.03;2.15;;;25.20;68.70;;;;;;5037594;28;20141;-67
2022/08/04 12:06:36;;;;;;;6.80;2.30;;;25.20;68.80;;;;;;5021481;28;20540;-68
2022/08/04 12:09:20;;;;;;;;;;;25.20;68.80;;;;;;5055247;28;20044;-67
2022/08/04 12:11:54;;;;;;;3.72;2.10;;;25.20;68.80;;;;;;5054887;28;19928;-67
2022/08/04 12:14:58;;;;;;;5.38;2.33;;;25.20;68.90;;;;;;5052723;28;20488;-67
2022/08/04 12:17:37;;;;;;;4.88;2.28;;;25.20;69.00;;;;;;5033097;28;20381;-65
2022/08/04 12:20:05;;;;;;;5.60;2.35;;;25.10;69.00;;;;;;5020187;28;20087;-66
2022/08/04 12:22:34;;;;;;;6.07;2.63;;;25.10;69.00;;;;;;5054887;28;20049;-66
2022/08/04 12:25:05;;;;;;;8.63;2.25;;;25.10;69.10;;;;;;5053528;28;20049;-65
2022/08/04 12:27:50;;;;;;;6.18;2.25;;;25.10;69.20;;;;;;5036706;28;20047;-65
2022/08/04 12:30:18;;;;;;;4.65;2.20;;;25.10;69.20;;;;;;5019675;28;20068;-66
2022/08/04 12:33:03;;;;;;;9.82;2.58;;;25.10;69.20;;;;;;5054553;28;20171;-69
2022/08/04 12:35:52;;;;;;;6.25;2.35;;;25.10;69.20;;;;;;5058109;28;20051;-66
2022/08/04 12:38:18;;;;;;;4.45;1.98;;;25.00;69.10;;;;;;5053111;28;20519;-65
2022/08/04 12:40:49;;;;;;;5.97;2.50;;;25.10;69.30;;;;;;5033643;28;20116;-65
2022/08/04 12:43:41;;;;;;;7.47;2.38;;;25.00;69.30;;;;;;5053052;28;20088;-65
2022/08/04 12:46:09;;;;;;;7.18;2.30;;;25.00;69.30;;;;;;5051638;28;20144;-65
2022/08/04 12:48:35;;;;;;;4.90;1.80;;;25.00;69.30;;;;;;5053386;28;20107;-65
2022/08/04 12:51:00;;;;;;;6.30;2.50;;;25.00;69.30;;;;;;5052243;28;20041;-65
2022/08/04 12:53:36;;;;;;;4.80;2.20;;;25.00;69.40;;;;;;5054321;28;20396;-64
2022/08/04 12:56:02;;;;;;;4.82;2.08;;;25.00;69.40;;;;;;5052137;28;20461;-65
2022/08/04 12:58:29;;;;;;;4.63;2.10;;;25.00;69.40;;;;;;5067271;28;20036;-65
2022/08/04 13:01:03;;;;;;;4.50;1.88;;;25.00;69.40;;;;;;5072382;28;20084;-65
2022/08/04 13:03:40;;;;;;;5.07;2.53;;;25.00;69.50;;;;;;5072089;28;20086;-66
2022/08/04 13:06:06;;;;;;;5.85;2.67;;;25.00;69.60;;;;;;5056276;28;20045;-71
2022/08/04 13:08:34;;;;;;;5.60;2.28;;;24.90;69.60;;;;;;5056007;28;20047;-66
2022/08/04 13:11:00;;;;;;;4.15;1.73;;;24.90;69.50;;;;;;5072103;28;20495;-66
2022/08/04 13:13:27;;;;;;;4.60;2.10;;;25.00;69.50;;;;;;5056485;28;20051;-66
2022/08/04 13:15:56;;;;;;;4.68;2.13;;;24.90;69.60;;;;;;5054314;28;20080;-65
2022/08/04 13:18:21;;;;;;;3.83;1.88;;;25.00;69.70;;;;;;5073844;28;20079;-67
2022/08/04 13:20:47;;;;;;;6.50;2.08;;;24.90;69.70;;;;;;5073423;28;20112;-67
2022/08/04 13:23:16;;;;;;;5.30;2.10;;;25.00;69.80;;;;;;5071830;28;20414;-65
2022/08/04 13:25:43;;;;;;;4.88;2.03;;;25.00;69.80;;;;;;5056189;28;20045;-68
2022/08/04 13:28:15;;;;;;;5.25;2.03;;;25.00;69.80;;;;;;5072584;28;20044;-67
2022/08/04 13:30:47;;;;;;;4.45;1.80;;;25.00;69.80;;;;;;5087954;28;20067;-67